createdAt,value
2019-03-27T00:00:01.695Z,99.90
2019-03-27T00:02:31.726Z,99.90
2019-03-27T00:05:00.340Z,99.90
2019-03-27T00:07:32.448Z,99.90
2019-03-27T00:10:01.016Z,99.90
2019-03-27T00:12:35.137Z,99.90
2019-03-27T00:15:12.767Z,99.90
2019-03-27T00:17:35.570Z,99.90
2019-03-27T00:20:15.047Z,99.90
2019-03-27T00:22:43.436Z,99.90
2019-03-27T00:25:14.214Z,99.90
2019-03-27T00:27:42.837Z,99.90
2019-03-27T00:30:15.267Z,99.90
2019-03-27T00:32:45.312Z,99.90
2019-03-27T00:35:17.182Z,99.90
2019-03-27T00:37:51.550Z,99.90
2019-03-27T00:40:19.957Z,99.90
2019-03-27T00:42:48.351Z,99.90
2019-03-27T00:45:26.567Z,99.90
2019-03-27T00:47:47.338Z,99.90
2019-03-27T00:50:20.968Z,99.90
2019-03-27T00:52:49.384Z,99.90
2019-03-27T00:55:21.664Z,99.90
2019-03-27T00:57:53.737Z,99.90
2019-03-27T01:00:30.890Z,99.90
2019-03-27T01:02:59.293Z,99.90
2019-03-27T01:05:34.672Z,99.90
2019-03-27T01:08:08.061Z,99.90
2019-03-27T01:10:36.455Z,99.90
2019-03-27T01:13:04.834Z,99.90
2019-03-27T01:15:39.929Z,99.90
2019-03-27T01:18:07.921Z,99.90
2019-03-27T01:20:39.228Z,99.90
2019-03-27T01:23:13.413Z,99.90
2019-03-27T01:25:41.812Z,99.90
2019-03-27T01:28:10.206Z,99.90
2019-03-27T01:30:38.601Z,99.90
2019-03-27T01:33:10.126Z,99.90
2019-03-27T01:35:41.454Z,99.90
2019-03-27T01:38:15.873Z,99.90
2019-03-27T01:40:44.743Z,99.90
2019-03-27T01:43:13.173Z,99.90
2019-03-27T01:45:52.430Z,99.90
2019-03-27T01:48:11.694Z,99.90
2019-03-27T01:50:40.338Z,99.90
2019-03-27T01:53:08.721Z,99.90
2019-03-27T01:55:41.733Z,99.90
2019-03-27T01:58:11.768Z,99.90
2019-03-27T02:00:49.119Z,99.90
2019-03-27T02:03:17.505Z,99.90
2019-03-27T02:05:45.897Z,99.90
2019-03-27T02:08:18.874Z,99.90
2019-03-27T02:10:47.424Z,99.90
2019-03-27T02:13:19.262Z,99.90
2019-03-27T02:15:50.452Z,99.90
2019-03-27T02:18:18.861Z,99.90
2019-03-27T02:20:47.250Z,99.90
2019-03-27T02:23:15.633Z,99.90
2019-03-27T02:25:44.034Z,99.90
2019-03-27T02:28:12.682Z,99.90
2019-03-27T02:30:44.019Z,99.90
2019-03-27T02:33:14.043Z,99.90
2019-03-27T02:35:45.412Z,99.90
2019-03-27T02:38:18.764Z,99.90
2019-03-27T02:40:47.788Z,99.90
2019-03-27T02:43:19.502Z,99.90
2019-03-27T02:45:49.582Z,99.90
2019-03-27T02:48:23.987Z,99.90
2019-03-27T02:50:53.369Z,99.90
2019-03-27T02:53:24.567Z,99.90
2019-03-27T02:55:52.988Z,99.90
2019-03-27T02:58:21.376Z,99.90
2019-03-27T03:00:54.378Z,99.90
2019-03-27T03:03:22.775Z,99.90
2019-03-27T03:05:57.956Z,99.90
2019-03-27T03:08:26.358Z,99.90
2019-03-27T03:10:55.002Z,99.90
2019-03-27T03:13:26.098Z,99.90
2019-03-27T03:15:54.495Z,99.90
2019-03-27T03:18:26.037Z,99.90
2019-03-27T03:20:58.773Z,99.90
2019-03-27T03:23:30.309Z,99.90
2019-03-27T03:26:03.266Z,99.90
2019-03-27T03:28:31.710Z,99.90
2019-03-27T03:31:03.043Z,99.90
2019-03-27T03:33:34.409Z,99.90
2019-03-27T03:36:02.860Z,99.90
2019-03-27T03:38:31.470Z,99.90
2019-03-27T03:41:05.456Z,99.90
2019-03-27T03:43:35.722Z,99.90
2019-03-27T03:46:06.046Z,99.90
2019-03-27T03:48:55.437Z,99.90
2019-03-27T03:51:24.599Z,99.90
2019-03-27T03:53:53.761Z,99.90
2019-03-27T03:56:24.659Z,99.90
2019-03-27T03:58:54.788Z,99.90
2019-03-27T04:01:27.114Z,99.90
2019-03-27T04:03:59.270Z,99.90
2019-03-27T04:06:33.198Z,99.90
2019-03-27T04:09:01.612Z,99.90
2019-03-27T04:11:32.715Z,99.90
2019-03-27T04:14:04.219Z,99.90
2019-03-27T04:16:35.524Z,99.90
2019-03-27T04:19:12.298Z,99.90
2019-03-27T04:21:40.788Z,99.90
2019-03-27T04:24:11.294Z,99.90
2019-03-27T04:26:48.518Z,99.90
2019-03-27T04:29:19.550Z,99.90
2019-03-27T04:31:53.309Z,99.90
2019-03-27T04:34:21.712Z,99.90
2019-03-27T04:36:58.577Z,99.90
2019-03-27T04:39:28.722Z,99.90
2019-03-27T04:41:58.333Z,99.90
2019-03-27T04:44:26.752Z,99.90
2019-03-27T04:46:55.169Z,99.90
2019-03-27T04:49:23.553Z,99.90
2019-03-27T04:51:54.885Z,99.90
2019-03-27T04:54:27.010Z,99.90
2019-03-27T04:56:55.043Z,99.90
2019-03-27T04:59:23.437Z,99.90
2019-03-27T05:01:54.757Z,99.90
2019-03-27T05:04:23.965Z,99.90
2019-03-27T05:06:58.446Z,99.90
2019-03-27T05:09:29.669Z,99.90
2019-03-27T05:11:59.730Z,99.90
2019-03-27T05:14:30.628Z,99.90
2019-03-27T05:17:01.817Z,99.90
2019-03-27T05:19:31.853Z,99.90
2019-03-27T05:22:03.229Z,99.90
2019-03-27T05:24:37.475Z,99.90
2019-03-27T05:27:07.517Z,99.90
2019-03-27T05:29:35.906Z,99.90
2019-03-27T05:32:04.313Z,99.90
2019-03-27T05:34:32.739Z,99.90
2019-03-27T05:37:01.408Z,99.90
2019-03-27T05:39:33.186Z,99.90
2019-03-27T05:42:01.586Z,99.90
2019-03-27T05:44:29.973Z,99.90
2019-03-27T05:46:58.420Z,99.90
2019-03-27T05:49:29.611Z,99.90
2019-03-27T05:51:57.997Z,99.90
2019-03-27T05:54:32.172Z,99.90
2019-03-27T05:57:00.563Z,99.90
2019-03-27T05:59:48.789Z,99.90
2019-03-27T06:02:17.197Z,99.90
2019-03-27T06:04:51.558Z,99.90
2019-03-27T06:07:31.661Z,99.90
2019-03-27T06:10:00.468Z,99.90
2019-03-27T06:12:28.853Z,99.90
2019-03-27T06:14:57.513Z,99.90
2019-03-27T06:19:52.804Z,99.90
2019-03-27T06:22:21.194Z,99.90
2019-03-27T06:24:49.623Z,99.90
2019-03-27T06:27:19.640Z,99.90
2019-03-27T06:29:48.270Z,99.90
2019-03-27T06:32:17.148Z,99.90
2019-03-27T06:35:10.639Z,99.90
2019-03-27T06:37:39.109Z,99.90
2019-03-27T06:40:11.397Z,99.90
2019-03-27T06:42:42.885Z,99.90
2019-03-27T06:45:11.287Z,99.90
2019-03-27T06:47:54.944Z,99.90
2019-03-27T06:50:24.840Z,99.90
2019-03-27T06:53:00.246Z,99.90
2019-03-27T06:55:26.313Z,99.90
2019-03-27T06:57:59.430Z,99.90
2019-03-27T07:00:37.825Z,99.90
2019-03-27T07:03:10.182Z,99.90
2019-03-27T07:05:40.212Z,99.90
2019-03-27T07:08:09.080Z,99.90
2019-03-27T07:10:38.295Z,99.90
2019-03-27T07:13:07.983Z,99.90
2019-03-27T07:15:38.117Z,99.90
2019-03-27T07:18:09.266Z,99.90
2019-03-27T07:20:40.840Z,99.90
2019-03-27T07:23:09.420Z,99.90
2019-03-27T07:25:37.817Z,99.90
2019-03-27T07:28:08.677Z,99.90
2019-03-27T07:30:37.083Z,99.90
2019-03-27T07:33:07.045Z,99.90
2019-03-27T07:35:35.391Z,99.90
2019-03-27T07:38:03.862Z,99.90
2019-03-27T07:40:32.663Z,99.90
2019-03-27T07:43:01.221Z,99.90
2019-03-27T07:45:29.610Z,99.90
2019-03-27T07:48:34.854Z,99.90
2019-03-27T07:51:03.350Z,99.90
2019-03-27T07:53:34.520Z,99.90
2019-03-27T07:56:02.898Z,99.90
2019-03-27T07:58:31.434Z,99.90
2019-03-27T08:01:01.465Z,99.90
2019-03-27T08:03:29.914Z,99.90
2019-03-27T08:05:58.307Z,99.90
2019-03-27T08:08:26.708Z,99.90
2019-03-27T08:10:55.105Z,99.90
2019-03-27T08:13:23.495Z,99.90
2019-03-27T08:15:52.132Z,99.90
2019-03-27T08:18:20.526Z,99.90
2019-03-27T08:20:48.923Z,99.90
2019-03-27T08:23:19.841Z,99.90
2019-03-27T08:25:48.246Z,99.90
2019-03-27T08:28:19.838Z,99.90
2019-03-27T08:30:48.232Z,99.90
2019-03-27T08:33:16.625Z,99.90
2019-03-27T08:35:45.020Z,99.90
2019-03-27T08:38:15.081Z,99.90
2019-03-27T08:40:44.037Z,99.90
2019-03-27T08:43:21.865Z,99.90
2019-03-27T08:45:49.480Z,99.90
2019-03-27T08:48:18.113Z,99.90
2019-03-27T08:50:47.925Z,99.90
2019-03-27T08:53:19.045Z,99.90
2019-03-27T08:55:47.434Z,99.90
2019-03-27T08:58:15.826Z,99.90
2019-03-27T09:00:46.641Z,99.90
2019-03-27T09:03:16.666Z,99.90
2019-03-27T09:05:45.110Z,99.90
2019-03-27T09:08:14.349Z,99.90
2019-03-27T09:10:44.373Z,99.90
2019-03-27T09:13:15.229Z,99.90
2019-03-27T09:15:43.635Z,99.90
2019-03-27T09:20:35.793Z,99.90
2019-03-27T09:23:07.550Z,99.90
2019-03-27T09:25:35.968Z,99.90
2019-03-27T09:28:08.585Z,99.90
2019-03-27T09:30:36.973Z,99.90
2019-03-27T09:33:07.005Z,99.90
2019-03-27T09:35:36.161Z,99.90
2019-03-27T09:38:04.553Z,99.90
2019-03-27T09:40:32.942Z,99.90
2019-03-27T09:43:01.438Z,99.90
2019-03-27T09:45:32.805Z,99.90
2019-03-27T09:48:01.267Z,99.90
2019-03-27T09:50:30.131Z,98.70
2019-03-27T09:53:05.908Z,97.40
2019-03-27T09:55:34.299Z,94.90
2019-03-27T09:58:02.929Z,96.20
2019-03-27T10:00:55.919Z,99.20
2019-03-27T10:03:24.384Z,99.90
2019-03-27T10:05:52.770Z,99.90
2019-03-27T10:08:21.167Z,99.90
2019-03-27T10:10:50.903Z,99.90
2019-03-27T10:13:20.457Z,99.90
2019-03-27T10:15:51.907Z,99.90
2019-03-27T10:18:28.668Z,99.90
2019-03-27T10:20:57.097Z,99.90
2019-03-27T10:23:25.588Z,99.90
2019-03-27T10:25:54.310Z,99.90
2019-03-27T10:28:22.949Z,99.90
2019-03-27T10:30:51.341Z,99.90
2019-03-27T10:33:19.739Z,99.90
2019-03-27T10:35:52.485Z,99.90
2019-03-27T10:38:25.393Z,99.90
2019-03-27T10:40:55.416Z,99.90
2019-03-27T10:43:26.739Z,99.90
2019-03-27T10:45:57.514Z,99.90
2019-03-27T10:48:26.146Z,99.90
2019-03-27T10:50:56.240Z,99.90
2019-03-27T10:53:26.518Z,99.90
2019-03-27T10:55:54.973Z,99.90
2019-03-27T10:58:23.377Z,99.90
2019-03-27T11:00:51.999Z,99.90
2019-03-27T11:03:20.386Z,99.90
2019-03-27T11:05:48.784Z,99.90
2019-03-27T11:08:20.138Z,99.90
2019-03-27T11:10:51.182Z,99.90
2019-03-27T11:13:19.572Z,99.90
2019-03-27T11:18:52.524Z,99.90
2019-03-27T11:21:20.917Z,99.90
2019-03-27T11:24:13.623Z,99.90
2019-03-27T11:27:00.433Z,99.90
2019-03-27T11:29:30.382Z,99.90
2019-03-27T11:32:00.446Z,99.90
2019-03-27T11:34:28.833Z,99.90
2019-03-27T11:37:02.031Z,99.90
2019-03-27T11:39:30.517Z,99.90
2019-03-27T11:42:00.803Z,99.90
2019-03-27T11:44:29.502Z,99.90
2019-03-27T11:47:02.145Z,99.90
2019-03-27T11:49:33.501Z,99.90
2019-03-27T11:52:04.941Z,99.90
2019-03-27T11:54:40.862Z,99.90
2019-03-27T11:57:09.323Z,99.90
2019-03-27T11:59:37.998Z,99.60
2019-03-27T12:02:10.725Z,99.90
2019-03-27T12:04:39.125Z,97.70
2019-03-27T12:07:10.529Z,98.00
2019-03-27T12:09:38.926Z,96.90
2019-03-27T12:12:07.420Z,97.50
2019-03-27T12:14:36.709Z,97.70
2019-03-27T12:17:05.106Z,98.10
2019-03-27T12:19:33.581Z,98.50
2019-03-27T12:22:03.697Z,98.40
2019-03-27T12:24:34.874Z,99.00
2019-03-27T12:27:06.325Z,97.20
2019-03-27T12:29:37.755Z,98.30
2019-03-27T12:32:12.605Z,97.40
2019-03-27T12:34:43.662Z,96.80
2019-03-27T12:37:12.054Z,97.90
2019-03-27T12:39:40.943Z,97.90
2019-03-27T12:42:10.117Z,97.30
2019-03-27T12:44:38.518Z,97.80
2019-03-27T12:47:06.905Z,97.60
2019-03-27T12:49:35.540Z,98.90
2019-03-27T12:52:05.693Z,97.70
2019-03-27T12:54:34.118Z,97.20
2019-03-27T12:57:05.157Z,96.80
2019-03-27T12:59:33.546Z,97.60
2019-03-27T13:02:01.951Z,97.40
2019-03-27T13:04:33.285Z,97.30
2019-03-27T13:07:01.914Z,96.80
2019-03-27T13:09:30.409Z,96.90
2019-03-27T13:11:58.793Z,97.40
2019-03-27T13:14:27.361Z,96.80
2019-03-27T13:16:55.745Z,97.00
2019-03-27T13:19:24.149Z,97.00
2019-03-27T13:21:55.601Z,97.40
2019-03-27T13:24:24.813Z,97.20
2019-03-27T13:27:11.249Z,96.50
2019-03-27T13:29:39.869Z,96.10
2019-03-27T13:32:12.181Z,96.20
2019-03-27T13:34:40.573Z,96.40
2019-03-27T13:37:08.987Z,95.40
2019-03-27T13:39:37.370Z,95.20
2019-03-27T13:42:11.381Z,95.40
2019-03-27T13:44:39.778Z,94.80
2019-03-27T13:47:11.047Z,95.00
2019-03-27T13:49:40.273Z,94.60
2019-03-27T13:52:08.708Z,95.10
2019-03-27T13:54:57.834Z,94.50
2019-03-27T13:58:19.813Z,94.50
2019-03-27T14:04:20.011Z,94.80
2019-03-27T14:06:50.012Z,93.10
2019-03-27T14:09:18.402Z,92.30
2019-03-27T14:11:47.042Z,92.70
2019-03-27T14:14:16.007Z,89.00
2019-03-27T14:16:45.255Z,85.50
2019-03-27T14:19:13.909Z,84.90
2019-03-27T14:21:54.533Z,84.00
2019-03-27T14:24:16.869Z,82.20
2019-03-27T14:26:46.838Z,79.30
2019-03-27T14:29:17.734Z,80.90
2019-03-27T14:31:47.756Z,76.60
2019-03-27T14:34:23.130Z,77.00
2019-03-27T14:36:51.517Z,77.60
2019-03-27T14:39:19.905Z,80.90
2019-03-27T14:41:48.301Z,77.70
2019-03-27T14:44:16.686Z,76.20
2019-03-27T14:46:45.465Z,76.80
2019-03-27T14:49:37.683Z,77.10
2019-03-27T14:52:08.564Z,77.00
2019-03-27T14:54:36.015Z,77.60
2019-03-27T14:57:06.085Z,75.50
2019-03-27T14:59:37.493Z,75.00
2019-03-27T15:02:07.767Z,75.40
2019-03-27T15:04:36.178Z,76.60
2019-03-27T15:07:07.621Z,75.10
2019-03-27T15:09:36.014Z,77.60
2019-03-27T15:12:04.520Z,78.00
2019-03-27T15:14:32.877Z,79.30
2019-03-27T15:17:01.508Z,80.70
2019-03-27T15:19:29.900Z,82.30
2019-03-27T15:21:58.291Z,83.00
2019-03-27T15:24:26.767Z,82.90
2019-03-27T15:26:55.388Z,84.10
2019-03-27T15:29:24.991Z,85.90
2019-03-27T15:31:53.342Z,87.50
2019-03-27T15:34:27.687Z,88.70
2019-03-27T15:36:59.021Z,90.10
2019-03-27T15:39:29.281Z,91.60
2019-03-27T15:41:57.673Z,91.30
2019-03-27T15:44:29.286Z,91.80
2019-03-27T15:47:00.967Z,92.50
2019-03-27T15:49:29.349Z,92.60
2019-03-27T15:52:00.822Z,92.40
2019-03-27T15:54:29.206Z,92.80
2019-03-27T15:57:00.318Z,92.30
2019-03-27T15:59:34.300Z,93.10
2019-03-27T16:02:02.775Z,93.10
2019-03-27T16:04:32.797Z,93.20
2019-03-27T16:07:03.667Z,92.80
2019-03-27T16:09:35.003Z,93.20
2019-03-27T16:12:05.591Z,93.00
2019-03-27T16:14:33.989Z,93.70
2019-03-27T16:17:13.395Z,95.10
2019-03-27T16:19:35.588Z,94.60
2019-03-27T16:22:10.379Z,94.90
2019-03-27T16:24:42.551Z,94.50
2019-03-27T16:27:10.931Z,94.50
2019-03-27T16:29:41.685Z,95.30
2019-03-27T16:32:13.177Z,95.70
2019-03-27T16:34:45.857Z,95.90
2019-03-27T16:37:17.000Z,96.60
2019-03-27T16:39:46.993Z,96.70
2019-03-27T16:42:16.064Z,96.90
2019-03-27T16:44:46.001Z,96.50
2019-03-27T16:47:17.094Z,96.00
2019-03-27T16:49:48.173Z,95.20
2019-03-27T16:52:16.573Z,94.80
2019-03-27T16:54:46.610Z,95.60
2019-03-27T16:57:18.123Z,96.00
2019-03-27T16:59:49.484Z,96.50
2019-03-27T17:02:17.887Z,96.80
2019-03-27T17:04:48.159Z,97.30
2019-03-27T17:07:16.552Z,97.90
2019-03-27T17:09:47.925Z,97.90
2019-03-27T17:12:16.489Z,98.10
2019-03-27T17:14:45.072Z,98.50
2019-03-27T17:17:16.421Z,99.80
2019-03-27T17:19:44.811Z,99.90
2019-03-27T17:22:19.383Z,99.90
2019-03-27T17:24:43.757Z,99.90
2019-03-27T17:27:12.150Z,99.90
2019-03-27T17:29:40.546Z,99.90
2019-03-27T17:32:11.841Z,99.90
2019-03-27T17:34:40.247Z,99.90
2019-03-27T17:37:11.428Z,99.90
2019-03-27T17:39:39.823Z,99.90
2019-03-27T17:42:10.094Z,99.90
2019-03-27T17:44:38.486Z,99.90
2019-03-27T17:47:06.876Z,99.90
2019-03-27T17:49:35.254Z,99.90
2019-03-27T17:52:06.361Z,99.90
2019-03-27T17:54:34.749Z,99.90
2019-03-27T17:57:03.145Z,99.90
2019-03-27T17:59:31.782Z,99.90
2019-03-27T18:02:02.869Z,99.90
2019-03-27T18:04:31.314Z,99.90
2019-03-27T18:06:59.691Z,99.90
2019-03-27T18:09:28.798Z,99.90
2019-03-27T18:11:59.961Z,99.90
2019-03-27T18:14:28.341Z,99.90
2019-03-27T18:16:56.736Z,99.90
2019-03-27T18:19:36.925Z,99.90
2019-03-27T18:22:08.117Z,99.90
2019-03-27T18:24:36.482Z,99.90
2019-03-27T18:27:10.824Z,99.90
2019-03-27T18:29:39.224Z,99.90
2019-03-27T18:32:07.606Z,99.90
2019-03-27T18:34:37.621Z,99.90
2019-03-27T18:37:08.748Z,99.90
2019-03-27T18:39:37.140Z,99.90
2019-03-27T18:42:05.539Z,99.90
2019-03-27T18:44:33.931Z,99.90
2019-03-27T18:47:02.317Z,99.90
2019-03-27T18:49:33.730Z,99.90
2019-03-27T18:52:05.249Z,99.90
2019-03-27T18:54:34.482Z,99.90
2019-03-27T18:57:05.499Z,99.90
2019-03-27T18:59:35.537Z,99.90
2019-03-27T19:02:10.333Z,99.90
2019-03-27T19:04:39.758Z,99.90
2019-03-27T19:07:12.739Z,99.90
2019-03-27T19:09:44.090Z,99.90
2019-03-27T19:12:12.469Z,99.90
2019-03-27T19:14:43.791Z,99.90
2019-03-27T19:17:16.561Z,99.90
2019-03-27T19:19:44.964Z,99.90
2019-03-27T19:22:17.688Z,99.90
2019-03-27T19:24:47.733Z,99.90
2019-03-27T19:27:16.382Z,99.90
2019-03-27T19:29:47.490Z,99.90
2019-03-27T19:32:18.939Z,99.90
2019-03-27T19:34:52.674Z,99.90
2019-03-27T19:37:21.321Z,99.90
2019-03-27T19:39:51.358Z,99.90
2019-03-27T19:42:21.398Z,99.90
2019-03-27T19:44:49.815Z,99.90
2019-03-27T19:47:22.045Z,99.90
2019-03-27T19:49:50.744Z,99.90
2019-03-27T19:52:19.146Z,99.90
2019-03-27T19:54:53.930Z,99.90
2019-03-27T19:57:22.320Z,99.90
2019-03-27T19:59:53.665Z,99.90
2019-03-27T20:02:28.762Z,99.90
2019-03-27T20:05:00.595Z,99.90
2019-03-27T20:07:35.821Z,99.90
2019-03-27T20:09:59.091Z,99.90
2019-03-27T20:12:27.462Z,99.90
2019-03-27T20:15:15.846Z,99.90
2019-03-27T20:17:44.454Z,99.90
2019-03-27T20:20:14.772Z,99.90
2019-03-27T20:22:43.623Z,99.90
2019-03-27T20:25:14.919Z,99.90
2019-03-27T20:27:43.564Z,99.90
2019-03-27T20:30:15.085Z,99.90
2019-03-27T20:32:43.541Z,99.90
2019-03-27T20:35:12.074Z,99.90
2019-03-27T20:37:40.524Z,99.90
2019-03-27T20:40:11.241Z,99.90
2019-03-27T20:42:39.819Z,99.90
2019-03-27T20:45:11.237Z,99.90
2019-03-27T20:47:39.639Z,99.90
2019-03-27T20:50:08.961Z,99.90
2019-03-27T20:52:37.694Z,99.90
2019-03-27T20:55:07.322Z,99.90
2019-03-27T20:57:39.838Z,99.90
2019-03-27T21:00:29.100Z,99.90
2019-03-27T21:02:57.494Z,99.90
2019-03-27T21:05:25.900Z,99.90
2019-03-27T21:07:54.313Z,99.90
2019-03-27T21:10:22.701Z,99.90
2019-03-27T21:12:51.087Z,99.90
2019-03-27T21:15:19.483Z,99.90
2019-03-27T21:17:47.866Z,99.90
2019-03-27T21:20:17.197Z,99.90
2019-03-27T21:22:45.610Z,99.90
2019-03-27T21:25:13.993Z,99.90
2019-03-27T21:27:42.416Z,99.90
2019-03-27T21:30:12.641Z,99.90
2019-03-27T21:32:41.303Z,99.90
2019-03-27T21:35:10.706Z,99.90
2019-03-27T21:37:41.356Z,99.90
2019-03-27T21:40:10.875Z,99.90
2019-03-27T21:42:39.273Z,99.90
2019-03-27T21:45:09.277Z,99.90
2019-03-27T21:47:37.675Z,99.90
2019-03-27T21:50:13.057Z,99.90
2019-03-27T21:52:41.495Z,99.90
2019-03-27T21:55:22.494Z,99.90
2019-03-27T21:57:59.963Z,99.90
2019-03-27T22:00:43.685Z,99.90
2019-03-27T22:03:15.139Z,99.90
2019-03-27T22:05:45.404Z,99.90
2019-03-27T22:08:17.453Z,99.90
2019-03-27T22:10:46.171Z,99.90
2019-03-27T22:13:17.599Z,99.90
2019-03-27T22:15:46.053Z,99.90
2019-03-27T22:18:20.457Z,99.90
2019-03-27T22:20:51.572Z,99.90
2019-03-27T22:23:19.985Z,99.90
2019-03-27T22:25:48.425Z,99.90
2019-03-27T22:28:16.822Z,99.90
2019-03-27T22:30:45.213Z,99.90
2019-03-27T22:33:15.225Z,99.90
2019-03-27T22:35:43.663Z,99.90
2019-03-27T22:38:12.041Z,99.90
2019-03-27T22:40:41.202Z,99.90
2019-03-27T22:43:12.418Z,99.90
2019-03-27T22:45:40.829Z,99.90
2019-03-27T22:48:10.862Z,99.90
2019-03-27T22:50:39.258Z,99.90
2019-03-27T22:53:07.648Z,99.90
2019-03-27T22:55:48.663Z,99.90
2019-03-27T22:58:06.410Z,99.90
2019-03-27T23:00:40.127Z,99.90
2019-03-27T23:03:18.601Z,99.90
2019-03-27T23:05:54.171Z,99.90
2019-03-27T23:08:25.505Z,99.90
2019-03-27T23:10:56.993Z,99.90
2019-03-27T23:13:25.376Z,99.90
2019-03-27T23:15:56.277Z,99.90
2019-03-27T23:18:27.576Z,99.90
2019-03-27T23:20:55.977Z,99.90
2019-03-27T23:23:29.089Z,99.90
2019-03-27T23:26:03.336Z,99.90
2019-03-27T23:28:36.389Z,99.90
2019-03-27T23:31:07.241Z,99.90
2019-03-27T23:33:36.903Z,99.90
2019-03-27T23:36:05.416Z,99.90
2019-03-27T23:38:36.627Z,99.90
2019-03-27T23:41:06.629Z,99.90
2019-03-27T23:43:37.680Z,99.90
2019-03-27T23:46:06.324Z,99.90
2019-03-27T23:48:34.713Z,99.90
2019-03-27T23:51:03.100Z,99.90
2019-03-27T23:53:33.146Z,99.90
2019-03-27T23:56:16.351Z,99.90
2019-03-27T23:58:37.753Z,99.90
